sensor_id;sensor_type;location;lat;lon;timestamp;pressure;altitude;pressure_sealevel;temperature
28803;BMP280;15949;55.656;37.422;2023-01-01T00:02:39;98992.25;;;0.31
28803;BMP280;15949;55.656;37.422;2023-01-01T00:07:44;99003.00;;;0.28
28803;BMP280;15949;55.656;37.422;2023-01-01T00:12:50;98994.00;;;0.35
28803;BMP280;15949;55.656;37.422;2023-01-01T00:17:56;98984.78;;;0.34
28803;BMP280;15949;55.656;37.422;2023-01-01T00:23:02;98984.00;;;0.34
28803;BMP280;15949;55.656;37.422;2023-01-01T00:28:08;98979.13;;;0.32
28803;BMP280;15949;55.656;37.422;2023-01-01T00:33:14;98963.00;;;0.32
28803;BMP280;15949;55.656;37.422;2023-01-01T00:38:20;98955.81;;;0.34
28803;BMP280;15949;55.656;37.422;2023-01-01T00:43:25;98947.09;;;0.35
28803;BMP280;15949;55.656;37.422;2023-01-01T00:48:32;98930.72;;;0.36
28803;BMP280;15949;55.656;37.422;2023-01-01T00:53:38;98912.47;;;0.37
28803;BMP280;15949;55.656;37.422;2023-01-01T00:58:44;98890.94;;;0.38
28803;BMP280;15949;55.656;37.422;2023-01-01T01:03:49;98897.66;;;0.34
28803;BMP280;15949;55.656;37.422;2023-01-01T01:08:55;98893.00;;;0.36
28803;BMP280;15949;55.656;37.422;2023-01-01T01:14:01;98877.63;;;0.36
28803;BMP280;15949;55.656;37.422;2023-01-01T01:19:07;98860.97;;;0.39
28803;BMP280;15949;55.656;37.422;2023-01-01T01:24:18;98860.19;;;0.38
28803;BMP280;15949;55.656;37.422;2023-01-01T01:29:24;98846.13;;;0.36
28803;BMP280;15949;55.656;37.422;2023-01-01T01:34:29;98862.53;;;0.35
28803;BMP280;15949;55.656;37.422;2023-01-01T01:39:35;98846.63;;;0.38
28803;BMP280;15949;55.656;37.422;2023-01-01T01:45:04;98826.84;;;0.43
28803;BMP280;15949;55.656;37.422;2023-01-01T01:50:19;98836.31;;;0.43
28803;BMP280;15949;55.656;37.422;2023-01-01T01:55:31;98818.38;;;0.43
28803;BMP280;15949;55.656;37.422;2023-01-01T02:00:38;98816.59;;;0.43
28803;BMP280;15949;55.656;37.422;2023-01-01T02:05:44;98813.75;;;0.45
28803;BMP280;15949;55.656;37.422;2023-01-01T02:10:50;98814.25;;;0.47
28803;BMP280;15949;55.656;37.422;2023-01-01T02:16:09;98799.41;;;0.44
28803;BMP280;15949;55.656;37.422;2023-01-01T02:21:20;98796.34;;;0.42
28803;BMP280;15949;55.656;37.422;2023-01-01T02:26:41;98792.19;;;0.46
28803;BMP280;15949;55.656;37.422;2023-01-01T02:31:56;98792.97;;;0.46
28803;BMP280;15949;55.656;37.422;2023-01-01T02:37:06;98788.34;;;0.48
28803;BMP280;15949;55.656;37.422;2023-01-01T02:42:13;98794.00;;;0.45
28803;BMP280;15949;55.656;37.422;2023-01-01T02:47:20;98780.66;;;0.48
28803;BMP280;15949;55.656;37.422;2023-01-01T03:04:10;98729.22;;;0.40
28803;BMP280;15949;55.656;37.422;2023-01-01T03:15:01;98733.81;;;0.43
28803;BMP280;15949;55.656;37.422;2023-01-01T03:20:12;98734.38;;;0.40
28803;BMP280;15949;55.656;37.422;2023-01-01T03:25:27;98717.94;;;0.41
28803;BMP280;15949;55.656;37.422;2023-01-01T03:30:35;98715.88;;;0.43
28803;BMP280;15949;55.656;37.422;2023-01-01T03:35:58;98692.03;;;0.42
28803;BMP280;15949;55.656;37.422;2023-01-01T03:46:29;98679.94;;;0.48
28803;BMP280;15949;55.656;37.422;2023-01-01T03:56:51;98661.13;;;0.52
28803;BMP280;15949;55.656;37.422;2023-01-01T04:01:59;98652.41;;;0.53
28803;BMP280;15949;55.656;37.422;2023-01-01T04:07:06;98656.00;;;0.52
28803;BMP280;15949;55.656;37.422;2023-01-01T04:12:14;98662.31;;;0.60
28803;BMP280;15949;55.656;37.422;2023-01-01T04:17:20;98645.41;;;0.59
28803;BMP280;15949;55.656;37.422;2023-01-01T04:22:26;98639.25;;;0.60
28803;BMP280;15949;55.656;37.422;2023-01-01T04:27:32;98627.19;;;0.61
28803;BMP280;15949;55.656;37.422;2023-01-01T04:32:38;98631.47;;;0.65
28803;BMP280;15949;55.656;37.422;2023-01-01T04:37:44;98631.22;;;0.67
28803;BMP280;15949;55.656;37.422;2023-01-01T04:42:52;98634.53;;;0.67
28803;BMP280;15949;55.656;37.422;2023-01-01T04:48:03;98618.34;;;0.72
28803;BMP280;15949;55.656;37.422;2023-01-01T04:53:09;98617.00;;;0.74
28803;BMP280;15949;55.656;37.422;2023-01-01T04:58:14;98615.47;;;0.73
28803;BMP280;15949;55.656;37.422;2023-01-01T05:03:20;98617.00;;;0.74
28803;BMP280;15949;55.656;37.422;2023-01-01T05:08:32;98623.66;;;0.75
28803;BMP280;15949;55.656;37.422;2023-01-01T05:13:43;98617.00;;;0.74
28803;BMP280;15949;55.656;37.422;2023-01-01T05:18:50;98602.66;;;0.73
28803;BMP280;15949;55.656;37.422;2023-01-01T05:23:57;98603.16;;;0.75
28803;BMP280;15949;55.656;37.422;2023-01-01T05:29:04;98598.03;;;0.75
28803;BMP280;15949;55.656;37.422;2023-01-01T05:34:09;98591.00;;;0.81
28803;BMP280;15949;55.656;37.422;2023-01-01T05:39:15;98599.72;;;0.80
28803;BMP280;15949;55.656;37.422;2023-01-01T05:44:21;98602.97;;;0.85
28803;BMP280;15949;55.656;37.422;2023-01-01T05:49:27;98594.22;;;0.86
28803;BMP280;15949;55.656;37.422;2023-01-01T05:54:33;98580.38;;;0.87
28803;BMP280;15949;55.656;37.422;2023-01-01T05:59:38;98573.69;;;0.86
28803;BMP280;15949;55.656;37.422;2023-01-01T06:04:44;98575.81;;;0.84
28803;BMP280;15949;55.656;37.422;2023-01-01T06:09:50;98569.41;;;0.82
28803;BMP280;15949;55.656;37.422;2023-01-01T06:14:55;98564.38;;;0.77
28803;BMP280;15949;55.656;37.422;2023-01-01T06:20:01;98556.50;;;0.73
28803;BMP280;15949;55.656;37.422;2023-01-01T06:25:08;98551.38;;;0.73
28803;BMP280;15949;55.656;37.422;2023-01-01T06:30:13;98565.63;;;0.79
28803;BMP280;15949;55.656;37.422;2023-01-01T06:35:19;98561.72;;;0.82
28803;BMP280;15949;55.656;37.422;2023-01-01T06:40:25;98554.31;;;0.80
28803;BMP280;15949;55.656;37.422;2023-01-01T06:45:30;98542.28;;;0.81
28803;BMP280;15949;55.656;37.422;2023-01-01T06:50:36;98519.19;;;0.81
28803;BMP280;15949;55.656;37.422;2023-01-01T06:55:47;98509.13;;;0.84
28803;BMP280;15949;55.656;37.422;2023-01-01T07:00:53;98506.56;;;0.84
28803;BMP280;15949;55.656;37.422;2023-01-01T07:06:08;98509.13;;;0.84
28803;BMP280;15949;55.656;37.422;2023-01-01T07:11:14;98509.50;;;0.91
28803;BMP280;15949;55.656;37.422;2023-01-01T07:16:20;98513.09;;;0.90
28803;BMP280;15949;55.656;37.422;2023-01-01T07:21:29;98511.03;;;0.92
28803;BMP280;15949;55.656;37.422;2023-01-01T07:26:35;98493.56;;;0.94
28803;BMP280;15949;55.656;37.422;2023-01-01T07:31:42;98486.91;;;0.93
28803;BMP280;15949;55.656;37.422;2023-01-01T07:36:48;98487.88;;;0.97
28803;BMP280;15949;55.656;37.422;2023-01-01T07:41:54;98490.97;;;1.08
28803;BMP280;15949;55.656;37.422;2023-01-01T07:47:01;98484.44;;;1.16
28803;BMP280;15949;55.656;37.422;2023-01-01T07:52:07;98483.88;;;1.19
28803;BMP280;15949;55.656;37.422;2023-01-01T07:57:13;98479.69;;;1.23
28803;BMP280;15949;55.656;37.422;2023-01-01T08:02:18;98490.72;;;1.23
28803;BMP280;15949;55.656;37.422;2023-01-01T08:07:24;98471.09;;;1.27
28803;BMP280;15949;55.656;37.422;2023-01-01T08:12:29;98472.06;;;1.31
28803;BMP280;15949;55.656;37.422;2023-01-01T08:17:35;98476.81;;;1.38
28803;BMP280;15949;55.656;37.422;2023-01-01T08:22:41;98474.16;;;1.43
28803;BMP280;15949;55.656;37.422;2023-01-01T08:27:46;98469.94;;;1.47
28803;BMP280;15949;55.656;37.422;2023-01-01T08:32:52;98460.13;;;1.49
28803;BMP280;15949;55.656;37.422;2023-01-01T08:37:57;98455.47;;;1.51
28803;BMP280;15949;55.656;37.422;2023-01-01T08:43:03;98438.94;;;1.57
28803;BMP280;15949;55.656;37.422;2023-01-01T08:48:09;98429.88;;;1.60
28803;BMP280;15949;55.656;37.422;2023-01-01T08:53:15;98420.28;;;1.65
28803;BMP280;15949;55.656;37.422;2023-01-01T08:58:20;98431.09;;;1.62
28803;BMP280;15949;55.656;37.422;2023-01-01T09:03:26;98432.50;;;1.68
28803;BMP280;15949;55.656;37.422;2023-01-01T09:08:32;98434.50;;;1.71
28803;BMP280;15949;55.656;37.422;2023-01-01T09:13:37;98424.09;;;1.76
28803;BMP280;15949;55.656;37.422;2023-01-01T09:18:43;98406.13;;;1.76
28803;BMP280;15949;55.656;37.422;2023-01-01T09:23:48;98390.16;;;1.79
28803;BMP280;15949;55.656;37.422;2023-01-01T09:28:54;98388.63;;;1.78
28803;BMP280;15949;55.656;37.422;2023-01-01T09:33:59;98384.44;;;1.82
28803;BMP280;15949;55.656;37.422;2023-01-01T09:39:05;98377.19;;;1.84
28803;BMP280;15949;55.656;37.422;2023-01-01T09:49:24;98383.44;;;1.92
28803;BMP280;15949;55.656;37.422;2023-01-01T09:54:37;98372.38;;;1.91
28803;BMP280;15949;55.656;37.422;2023-01-01T09:59:44;98366.50;;;1.91
28803;BMP280;15949;55.656;37.422;2023-01-01T10:15:41;98343.28;;;2.04
28803;BMP280;15949;55.656;37.422;2023-01-01T10:26:20;98330.19;;;2.15
28803;BMP280;15949;55.656;37.422;2023-01-01T10:31:28;98301.31;;;2.18
28803;BMP280;15949;55.656;37.422;2023-01-01T10:36:35;98297.72;;;2.19
28803;BMP280;15949;55.656;37.422;2023-01-01T10:41:41;98289.72;;;2.20
28803;BMP280;15949;55.656;37.422;2023-01-01T10:46:52;98307.34;;;2.22
28803;BMP280;15949;55.656;37.422;2023-01-01T10:51:59;98296.19;;;2.26
28803;BMP280;15949;55.656;37.422;2023-01-01T10:57:19;98286.22;;;2.25
28803;BMP280;15949;55.656;37.422;2023-01-01T11:02:27;98280.63;;;2.23
28803;BMP280;15949;55.656;37.422;2023-01-01T11:07:33;98279.25;;;2.25
28803;BMP280;15949;55.656;37.422;2023-01-01T11:12:39;98279.72;;;2.27
28803;BMP280;15949;55.656;37.422;2023-01-01T11:17:45;98266.59;;;2.29
28803;BMP280;15949;55.656;37.422;2023-01-01T11:22:51;98271.13;;;2.32
28803;BMP280;15949;55.656;37.422;2023-01-01T11:28:20;98256.59;;;2.27
28803;BMP280;15949;55.656;37.422;2023-01-01T11:33:26;98264.59;;;2.26
28803;BMP280;15949;55.656;37.422;2023-01-01T11:38:34;98255.06;;;2.26
28803;BMP280;15949;55.656;37.422;2023-01-01T11:43:43;98237.56;;;2.28
28803;BMP280;15949;55.656;37.422;2023-01-01T11:48:50;98237.72;;;2.32
28803;BMP280;15949;55.656;37.422;2023-01-01T11:59:54;98223.34;;;2.31
28803;BMP280;15949;55.656;37.422;2023-01-01T12:10:58;98211.56;;;2.38
28803;BMP280;15949;55.656;37.422;2023-01-01T12:16:18;98210.19;;;2.41
28803;BMP280;15949;55.656;37.422;2023-01-01T12:21:25;98202.47;;;2.41
28803;BMP280;15949;55.656;37.422;2023-01-01T12:26:33;98208.53;;;2.45
28803;BMP280;15949;55.656;37.422;2023-01-01T12:58:25;98197.19;;;2.46
28803;BMP280;15949;55.656;37.422;2023-01-01T13:04:01;98193.25;;;2.48
28803;BMP280;15949;55.656;37.422;2023-01-01T13:09:14;98178.75;;;2.52
28803;BMP280;15949;55.656;37.422;2023-01-01T13:14:19;98176.16;;;2.52
28803;BMP280;15949;55.656;37.422;2023-01-01T13:19:32;98173.31;;;2.54
28803;BMP280;15949;55.656;37.422;2023-01-01T13:24:38;98168.03;;;2.50
28803;BMP280;15949;55.656;37.422;2023-01-01T13:29:44;98174.69;;;2.51
28803;BMP280;15949;55.656;37.422;2023-01-01T13:35:00;98153.19;;;2.56
28803;BMP280;15949;55.656;37.422;2023-01-01T13:45:42;98150.59;;;2.65
28803;BMP280;15949;55.656;37.422;2023-01-01T14:07:31;98150.88;;;2.80
28803;BMP280;15949;55.656;37.422;2023-01-01T14:12:39;98154.78;;;2.86
28803;BMP280;15949;55.656;37.422;2023-01-01T14:17:46;98152.06;;;2.91
28803;BMP280;15949;55.656;37.422;2023-01-01T14:22:52;98139.50;;;2.90
28803;BMP280;15949;55.656;37.422;2023-01-01T14:27:58;98122.53;;;2.89
28803;BMP280;15949;55.656;37.422;2023-01-01T14:33:04;98122.25;;;2.90
28803;BMP280;15949;55.656;37.422;2023-01-01T14:38:25;98129.66;;;2.92
28803;BMP280;15949;55.656;37.422;2023-01-01T14:43:37;98132.53;;;2.99
28803;BMP280;15949;55.656;37.422;2023-01-01T14:48:45;98117.84;;;2.99
28803;BMP280;15949;55.656;37.422;2023-01-01T14:53:53;98110.88;;;3.00
28803;BMP280;15949;55.656;37.422;2023-01-01T14:59:06;98094.22;;;2.97
28803;BMP280;15949;55.656;37.422;2023-01-01T15:04:21;98101.34;;;3.00
28803;BMP280;15949;55.656;37.422;2023-01-01T15:09:29;98106.31;;;3.06
28803;BMP280;15949;55.656;37.422;2023-01-01T15:14:37;98103.13;;;3.09
28803;BMP280;15949;55.656;37.422;2023-01-01T15:19:44;98105.06;;;3.12
28803;BMP280;15949;55.656;37.422;2023-01-01T15:24:50;98080.56;;;3.14
28803;BMP280;15949;55.656;37.422;2023-01-01T15:29:56;98086.25;;;3.20
28803;BMP280;15949;55.656;37.422;2023-01-01T15:35:05;98072.16;;;3.26
28803;BMP280;15949;55.656;37.422;2023-01-01T15:45:29;98049.28;;;3.24
28803;BMP280;15949;55.656;37.422;2023-01-01T15:50:42;98048.22;;;3.25
28803;BMP280;15949;55.656;37.422;2023-01-01T15:56:02;98047.94;;;3.27
28803;BMP280;15949;55.656;37.422;2023-01-01T16:01:12;98055.66;;;3.27
28803;BMP280;15949;55.656;37.422;2023-01-01T16:06:19;98059.97;;;3.35
28803;BMP280;15949;55.656;37.422;2023-01-01T16:11:25;98037.56;;;3.35
28803;BMP280;15949;55.656;37.422;2023-01-01T16:16:31;98033.47;;;3.34
28803;BMP280;15949;55.656;37.422;2023-01-01T16:21:37;98026.50;;;3.35
28803;BMP280;15949;55.656;37.422;2023-01-01T16:26:43;98024.53;;;3.40
28803;BMP280;15949;55.656;37.422;2023-01-01T16:31:49;98021.19;;;3.40
28803;BMP280;15949;55.656;37.422;2023-01-01T16:36:55;98013.47;;;3.40
28803;BMP280;15949;55.656;37.422;2023-01-01T16:42:00;98013.59;;;3.43
28803;BMP280;15949;55.656;37.422;2023-01-01T16:47:06;98012.50;;;3.44
28803;BMP280;15949;55.656;37.422;2023-01-01T16:52:12;98002.63;;;3.46
28803;BMP280;15949;55.656;37.422;2023-01-01T16:57:17;98007.50;;;3.48
28803;BMP280;15949;55.656;37.422;2023-01-01T17:02:23;98001.69;;;3.51
28803;BMP280;15949;55.656;37.422;2023-01-01T17:07:28;98000.03;;;3.55
28803;BMP280;15949;55.656;37.422;2023-01-01T17:12:34;97979.66;;;3.62
28803;BMP280;15949;55.656;37.422;2023-01-01T17:17:39;97956.28;;;3.67
28803;BMP280;15949;55.656;37.422;2023-01-01T17:22:45;97961.88;;;3.69
28803;BMP280;15949;55.656;37.422;2023-01-01T17:27:51;97958.78;;;3.76
28803;BMP280;15949;55.656;37.422;2023-01-01T17:32:56;97954.81;;;3.78
28803;BMP280;15949;55.656;37.422;2023-01-01T17:38:02;97950.56;;;3.82
28803;BMP280;15949;55.656;37.422;2023-01-01T17:43:07;97951.19;;;3.91
28803;BMP280;15949;55.656;37.422;2023-01-01T17:48:13;97948.66;;;4.03
28803;BMP280;15949;55.656;37.422;2023-01-01T17:53:18;97948.56;;;4.12
28803;BMP280;15949;55.656;37.422;2023-01-01T17:58:24;97951.06;;;4.21
28803;BMP280;15949;55.656;37.422;2023-01-01T18:03:30;97946.00;;;4.24
28803;BMP280;15949;55.656;37.422;2023-01-01T18:08:35;97944.63;;;4.39
28803;BMP280;15949;55.656;37.422;2023-01-01T18:13:41;97942.91;;;4.43
28803;BMP280;15949;55.656;37.422;2023-01-01T18:18:47;97947.19;;;4.51
28803;BMP280;15949;55.656;37.422;2023-01-01T18:23:54;97949.16;;;4.54
28803;BMP280;15949;55.656;37.422;2023-01-01T18:29:00;97946.75;;;4.61
28803;BMP280;15949;55.656;37.422;2023-01-01T18:34:06;97959.16;;;4.68
28803;BMP280;15949;55.656;37.422;2023-01-01T18:39:25;97953.97;;;4.68
28803;BMP280;15949;55.656;37.422;2023-01-01T18:44:31;97930.94;;;4.75
28803;BMP280;15949;55.656;37.422;2023-01-01T18:49:38;97938.16;;;4.81
28803;BMP280;15949;55.656;37.422;2023-01-01T18:54:44;97929.00;;;4.84
28803;BMP280;15949;55.656;37.422;2023-01-01T18:59:50;97926.97;;;4.89
28803;BMP280;15949;55.656;37.422;2023-01-01T19:05:14;97932.53;;;4.91
28803;BMP280;15949;55.656;37.422;2023-01-01T19:10:20;97930.16;;;4.98
28803;BMP280;15949;55.656;37.422;2023-01-01T19:15:25;97944.00;;;5.06
28803;BMP280;15949;55.656;37.422;2023-01-01T19:20:31;97932.69;;;5.10
28803;BMP280;15949;55.656;37.422;2023-01-01T19:25:38;97927.97;;;5.13
28803;BMP280;15949;55.656;37.422;2023-01-01T19:30:44;97918.88;;;5.19
28803;BMP280;15949;55.656;37.422;2023-01-01T19:35:50;97921.91;;;5.21
28803;BMP280;15949;55.656;37.422;2023-01-01T19:40:55;97943.00;;;5.23
28803;BMP280;15949;55.656;37.422;2023-01-01T19:46:02;97949.34;;;5.25
28803;BMP280;15949;55.656;37.422;2023-01-01T19:51:07;97949.41;;;5.29
28803;BMP280;15949;55.656;37.422;2023-01-01T19:56:13;97950.09;;;5.26
28803;BMP280;15949;55.656;37.422;2023-01-01T20:01:20;97940.41;;;5.23
28803;BMP280;15949;55.656;37.422;2023-01-01T20:06:25;97938.59;;;5.23
28803;BMP280;15949;55.656;37.422;2023-01-01T20:11:31;97943.00;;;5.23
28803;BMP280;15949;55.656;37.422;2023-01-01T20:16:37;97933.41;;;5.23
28803;BMP280;15949;55.656;37.422;2023-01-01T20:21:43;97930.84;;;5.23
28803;BMP280;15949;55.656;37.422;2023-01-01T20:27:08;97945.78;;;5.30
28803;BMP280;15949;55.656;37.422;2023-01-01T20:32:13;97960.59;;;5.33
28803;BMP280;15949;55.656;37.422;2023-01-01T20:37:20;97972.22;;;5.27
28803;BMP280;15949;55.656;37.422;2023-01-01T20:42:40;97964.25;;;5.32
28803;BMP280;15949;55.656;37.422;2023-01-01T20:47:47;97968.53;;;5.40
28803;BMP280;15949;55.656;37.422;2023-01-01T20:52:53;97970.94;;;5.33
28803;BMP280;15949;55.656;37.422;2023-01-01T20:57:58;97981.09;;;5.26
28803;BMP280;15949;55.656;37.422;2023-01-01T21:03:04;97970.84;;;5.29
28803;BMP280;15949;55.656;37.422;2023-01-01T21:08:09;97973.72;;;5.28
28803;BMP280;15949;55.656;37.422;2023-01-01T21:13:15;97973.56;;;5.21
28803;BMP280;15949;55.656;37.422;2023-01-01T21:18:21;97975.81;;;5.22
28803;BMP280;15949;55.656;37.422;2023-01-01T21:23:26;97962.16;;;5.22
28803;BMP280;15949;55.656;37.422;2023-01-01T21:28:33;97960.06;;;5.27
28803;BMP280;15949;55.656;37.422;2023-01-01T21:33:40;97972.59;;;5.25
28803;BMP280;15949;55.656;37.422;2023-01-01T21:38:47;97957.41;;;5.24
28803;BMP280;15949;55.656;37.422;2023-01-01T21:43:57;97945.16;;;5.21
28803;BMP280;15949;55.656;37.422;2023-01-01T21:54:23;97931.94;;;5.10
28803;BMP280;15949;55.656;37.422;2023-01-01T21:59:34;97920.75;;;5.06
28803;BMP280;15949;55.656;37.422;2023-01-01T22:04:48;97926.63;;;5.03
28803;BMP280;15949;55.656;37.422;2023-01-01T22:09:55;97920.69;;;5.02
28803;BMP280;15949;55.656;37.422;2023-01-01T22:20:33;97913.03;;;5.06
28803;BMP280;15949;55.656;37.422;2023-01-01T22:25:41;97899.34;;;5.05
28803;BMP280;15949;55.656;37.422;2023-01-01T22:30:48;97889.03;;;5.05
28803;BMP280;15949;55.656;37.422;2023-01-01T22:35:55;97895.41;;;4.96
28803;BMP280;15949;55.656;37.422;2023-01-01T22:41:01;97884.06;;;4.85
28803;BMP280;15949;55.656;37.422;2023-01-01T22:46:33;97896.22;;;4.72
28803;BMP280;15949;55.656;37.422;2023-01-01T22:51:41;97895.84;;;4.58
28803;BMP280;15949;55.656;37.422;2023-01-01T22:56:47;97903.66;;;4.37
28803;BMP280;15949;55.656;37.422;2023-01-01T23:01:52;97917.97;;;4.11
28803;BMP280;15949;55.656;37.422;2023-01-01T23:06:58;97937.44;;;3.87
28803;BMP280;15949;55.656;37.422;2023-01-01T23:12:03;97943.13;;;3.69
28803;BMP280;15949;55.656;37.422;2023-01-01T23:17:09;97946.25;;;3.53
28803;BMP280;15949;55.656;37.422;2023-01-01T23:22:16;97954.47;;;3.47
28803;BMP280;15949;55.656;37.422;2023-01-01T23:27:22;97968.31;;;3.42
28803;BMP280;15949;55.656;37.422;2023-01-01T23:32:28;97990.06;;;3.24
28803;BMP280;15949;55.656;37.422;2023-01-01T23:37:34;98022.88;;;3.07
28803;BMP280;15949;55.656;37.422;2023-01-01T23:42:39;98035.38;;;2.96
28803;BMP280;15949;55.656;37.422;2023-01-01T23:47:45;98034.72;;;2.70
28803;BMP280;15949;55.656;37.422;2023-01-01T23:52:51;98059.00;;;2.26
28803;BMP280;15949;55.656;37.422;2023-01-01T23:57:56;98068.81;;;1.81
